Portada
METAR-TAF:

METAR-TAF

Aeroports :

Toamasina, Madagascar

latitud: 18-07S, longitud: 049-24E, altitud: 5 m

Observació

L'informe es va fer fa 1 hora i 8 minuts, a les 15:00 UTC
Vent 3 kt del Sud
Temperatura 23°C
Humitat 78%
Pressió 1021 hPa
Visibilitat 10 km o més
Escasses núvols a una alçada de 1700 ft
Núvols disperses a una alçada de 3300 ft
xàfecs en les proximitats

METAR: FMMT 191500Z 17003KT 9999 VCSH FEW017 SCT033 23/19 Q1021 NOSIG

Hora: 19:08 (16:08 UTC)

Pronòstic

L'informe es va fer fa 5 hores i 8 minuts, a les 11:00 UTC
Pronòstic vàlid del 19 a les 12 UTC al 20 a les 12 UTC
Vent 10 kt del Sud
Visibilitat 10 km o més
Escasses núvols a una alçada de 700 ft
Núvols disperses a una alçada de 1700 ft
Cel ennuvolat a una alçada de 3300 ft
Temporalment
l' 19 a les 12 UTC al 20 a les 12 UTC
Visibilitat: 3500 m
pluja

TAF: FMMT 191100Z 1912/2012 18010KT 9999 FEW007 SCT017 BKN033 TEMPO 1912/2012 3500 RA

Observacions i pronòstics meteorològics de més de 4000 aeroports (METAR i TAF).

Les estacions disponibles són els punts grocs i vermells al mapa.

Posi el ratolí al punt desitjat per veure el nom de l'estació.

Feu clic per veure les observacions i els pronòstics meteorològics.

Per canviar el mapa: feu clic els botons verds amb una creu de color negre per apropar; al botó verd amb un guió per allunyar la imatge; o en les fletxes verdes per a mapes adjacents.


METAR-TAF: